createdAt,value
2023-08-20T00:02:06.076Z,15.88
2023-08-20T00:05:10.370Z,15.23
2023-08-20T00:08:13.593Z,15.60
2023-08-20T00:11:18.214Z,16.93
2023-08-20T00:14:21.143Z,15.07
2023-08-20T00:17:25.773Z,15.10
2023-08-20T00:20:30.010Z,18.40
2023-08-20T00:23:33.445Z,16.00
2023-08-20T00:26:38.342Z,16.20
2023-08-20T00:29:41.466Z,15.93
2023-08-20T00:32:44.432Z,15.55
2023-08-20T00:35:47.191Z,15.95
2023-08-20T00:38:50.107Z,14.90
2023-08-20T00:41:54.270Z,15.77
2023-08-20T00:44:57.143Z,14.95
2023-08-20T00:48:00.452Z,15.05
2023-08-20T00:51:03.670Z,15.48
2023-08-20T00:54:07.404Z,13.93
2023-08-20T00:57:11.959Z,14.13
2023-08-20T01:00:15.194Z,14.38
2023-08-20T01:03:18.402Z,14.70
2023-08-20T01:06:26.214Z,15.10
2023-08-20T01:09:39.864Z,14.30
2023-08-20T01:12:47.704Z,15.37
2023-08-20T01:15:50.635Z,13.80
2023-08-20T01:18:53.559Z,14.77
2023-08-20T01:22:17.206Z,13.50
2023-08-20T01:25:30.477Z,14.40
2023-08-20T01:28:35.068Z,13.53
2023-08-20T01:31:39.053Z,13.68
2023-08-20T01:34:41.910Z,14.32
2023-08-20T01:37:44.792Z,15.05
2023-08-20T01:40:47.786Z,14.53
2023-08-20T01:43:51.925Z,13.60
2023-08-20T01:46:54.843Z,13.10
2023-08-20T01:49:57.960Z,13.93
2023-08-20T01:53:00.964Z,13.73
2023-08-20T01:56:04.034Z,13.10
2023-08-20T01:59:08.341Z,14.67
2023-08-20T02:02:11.415Z,13.30
2023-08-20T02:05:14.310Z,14.10
2023-08-20T02:08:17.064Z,14.52
2023-08-20T02:11:22.775Z,13.57
2023-08-20T02:14:28.135Z,13.47
2023-08-20T02:17:31.093Z,13.35
2023-08-20T02:20:34.020Z,14.27
2023-08-20T02:23:36.772Z,13.80
2023-08-20T02:26:39.707Z,14.73
2023-08-20T02:29:43.761Z,13.63
2023-08-20T02:32:46.651Z,13.13
2023-08-20T02:35:49.534Z,14.68
2023-08-20T02:38:52.294Z,13.00
2023-08-20T02:41:55.113Z,12.70
2023-08-20T02:44:59.175Z,12.17
2023-08-20T02:48:02.553Z,13.73
2023-08-20T02:51:05.884Z,13.02
2023-08-20T02:54:08.752Z,13.32
2023-08-20T02:57:11.899Z,11.90
2023-08-20T03:00:16.972Z,12.13
2023-08-20T03:03:19.830Z,11.23
2023-08-20T03:06:22.647Z,11.75
2023-08-20T03:09:25.375Z,12.02
2023-08-20T03:12:28.207Z,12.37
2023-08-20T03:15:32.339Z,12.30
2023-08-20T03:18:35.172Z,11.88
2023-08-20T03:21:38.044Z,12.52
2023-08-20T03:24:40.727Z,11.77
2023-08-20T03:27:43.749Z,11.13
2023-08-20T03:30:48.252Z,11.17
2023-08-20T03:33:51.350Z,12.82
2023-08-20T03:36:54.396Z,12.63
2023-08-20T03:39:57.355Z,10.90
2023-08-20T03:43:00.268Z,12.80
2023-08-20T03:46:05.163Z,12.17
2023-08-20T03:49:08.086Z,11.98
2023-08-20T03:52:10.955Z,12.38
2023-08-20T03:55:13.726Z,12.57
2023-08-20T03:58:16.650Z,12.00
2023-08-20T04:01:20.915Z,11.90
2023-08-20T04:04:23.929Z,12.57
2023-08-20T04:07:26.784Z,12.93
2023-08-20T04:10:29.546Z,14.50
2023-08-20T04:13:32.505Z,14.13
2023-08-20T04:16:36.582Z,11.30
2023-08-20T04:19:39.437Z,12.05
2023-08-20T04:22:42.891Z,12.63
2023-08-20T04:25:46.269Z,14.77
2023-08-20T04:28:49.163Z,12.50
2023-08-20T04:31:53.253Z,12.47
2023-08-20T04:34:56.139Z,13.77
2023-08-20T04:37:58.982Z,13.45
2023-08-20T04:41:01.707Z,13.52
2023-08-20T04:44:04.993Z,14.47
2023-08-20T04:47:13.277Z,13.27
2023-08-20T04:50:16.903Z,13.15
2023-08-20T04:53:21.290Z,13.82
2023-08-20T04:56:24.049Z,13.27
2023-08-20T04:59:27.289Z,12.73
2023-08-20T05:02:31.439Z,13.43
2023-08-20T05:05:34.362Z,13.43
2023-08-20T05:08:37.248Z,14.18
2023-08-20T05:11:40.054Z,12.60
2023-08-20T05:14:42.974Z,13.33
2023-08-20T05:17:47.403Z,21.57
2023-08-20T05:20:50.322Z,15.15
2023-08-20T05:23:53.142Z,13.77
2023-08-20T05:27:09.408Z,14.18
2023-08-20T05:30:13.225Z,15.60
2023-08-20T05:33:17.494Z,14.67
2023-08-20T05:36:20.551Z,14.13
2023-08-20T05:39:24.275Z,15.82
2023-08-20T05:42:27.024Z,13.48
2023-08-20T05:45:29.922Z,14.27
2023-08-20T05:48:34.280Z,15.37
2023-08-20T05:51:37.017Z,14.63
2023-08-20T05:54:39.849Z,14.27
2023-08-20T05:57:44.000Z,16.17
2023-08-20T06:00:46.940Z,15.40
2023-08-20T06:03:51.149Z,17.20
2023-08-20T06:06:53.909Z,16.30
2023-08-20T06:09:57.888Z,12.98
2023-08-20T06:13:00.580Z,18.38
2023-08-20T06:16:03.557Z,14.30
2023-08-20T06:19:08.314Z,16.80
2023-08-20T06:22:11.149Z,15.73
2023-08-20T06:25:14.781Z,15.20
2023-08-20T06:28:17.491Z,15.65
2023-08-20T06:31:20.430Z,13.30
2023-08-20T06:34:25.354Z,13.77
2023-08-20T06:37:28.107Z,11.63
2023-08-20T06:40:30.970Z,15.13
2023-08-20T06:43:33.738Z,13.15
2023-08-20T06:46:36.591Z,12.73
2023-08-20T06:49:40.821Z,12.15
2023-08-20T06:52:43.933Z,13.07
2023-08-20T06:55:46.890Z,12.50
2023-08-20T06:58:49.638Z,13.80
2023-08-20T07:01:52.477Z,13.00
2023-08-20T07:04:56.738Z,12.40
2023-08-20T07:07:59.450Z,13.87
2023-08-20T07:11:02.312Z,11.90
2023-08-20T07:14:05.359Z,12.55
2023-08-20T07:17:08.183Z,12.93
2023-08-20T07:20:13.128Z,13.55
2023-08-20T07:23:15.991Z,12.67
2023-08-20T07:26:18.874Z,14.38
2023-08-20T07:29:22.039Z,13.27
2023-08-20T07:32:24.813Z,13.00
2023-08-20T07:35:29.599Z,13.30
2023-08-20T07:38:32.313Z,13.57
2023-08-20T07:41:35.134Z,13.48
2023-08-20T07:44:37.965Z,13.63
2023-08-20T07:47:41.138Z,11.63
2023-08-20T07:50:45.458Z,11.10
2023-08-20T07:53:48.173Z,10.43
2023-08-20T07:56:51.021Z,10.05
2023-08-20T07:59:54.336Z,9.45
2023-08-20T08:02:57.063Z,10.43
2023-08-20T08:06:01.324Z,10.25
2023-08-20T08:09:22.746Z,8.93
2023-08-20T08:12:25.750Z,8.52
2023-08-20T08:15:28.610Z,8.85
2023-08-20T08:18:31.476Z,7.38
2023-08-20T08:21:35.708Z,8.25
2023-08-20T08:24:39.760Z,7.20
2023-08-20T08:27:58.257Z,6.15
2023-08-20T08:31:04.622Z,7.15
2023-08-20T08:34:08.575Z,6.07
2023-08-20T08:37:12.811Z,6.30
2023-08-20T08:40:16.097Z,6.07
2023-08-20T08:43:18.999Z,5.60
2023-08-20T08:46:22.664Z,5.25
2023-08-20T08:49:25.593Z,5.03
2023-08-20T08:52:29.842Z,5.13
2023-08-20T08:55:32.731Z,5.00
2023-08-20T08:58:35.567Z,6.38
2023-08-20T09:01:41.037Z,5.05
2023-08-20T09:04:44.599Z,4.80
2023-08-20T09:07:49.063Z,5.13
2023-08-20T09:10:56.554Z,4.33
2023-08-20T09:13:59.262Z,6.38
2023-08-20T09:17:03.504Z,5.68
2023-08-20T09:20:07.102Z,5.90
2023-08-20T09:23:15.003Z,5.35
2023-08-20T09:26:17.842Z,5.40
2023-08-20T09:29:20.581Z,4.25
2023-08-20T09:32:25.353Z,5.45
2023-08-20T09:35:28.035Z,4.35
2023-08-20T09:38:32.361Z,5.68
2023-08-20T09:41:39.515Z,5.27
2023-08-20T09:44:44.295Z,4.65
2023-08-20T09:47:50.571Z,4.38
2023-08-20T09:50:59.417Z,4.65
2023-08-20T09:54:14.428Z,4.68
2023-08-20T09:57:28.441Z,3.60
2023-08-20T10:00:32.149Z,4.85
2023-08-20T10:03:35.393Z,3.72
2023-08-20T10:06:39.141Z,3.58
2023-08-20T10:09:47.029Z,3.45
2023-08-20T10:12:50.219Z,3.77
2023-08-20T10:15:55.608Z,4.28
2023-08-20T10:19:03.656Z,3.50
2023-08-20T10:22:06.799Z,4.15
2023-08-20T10:25:12.669Z,3.60
2023-08-20T10:28:23.720Z,4.47
2023-08-20T10:31:28.237Z,3.92
2023-08-20T10:34:37.217Z,4.38
2023-08-20T10:37:41.341Z,4.13
2023-08-20T10:40:58.828Z,3.50
2023-08-20T10:44:02.363Z,3.57
2023-08-20T10:47:09.084Z,4.30
2023-08-20T10:50:13.177Z,4.00
2023-08-20T10:53:15.954Z,4.05
2023-08-20T10:56:20.381Z,5.43
2023-08-20T10:59:24.461Z,4.03
2023-08-20T11:02:28.066Z,4.10
2023-08-20T11:05:31.082Z,4.35
2023-08-20T11:08:34.532Z,4.32
2023-08-20T11:11:40.203Z,4.57
2023-08-20T11:14:42.987Z,4.00
2023-08-20T11:17:49.974Z,4.85
2023-08-20T11:20:54.188Z,5.15
2023-08-20T11:23:57.525Z,4.32
2023-08-20T11:27:01.724Z,5.15
2023-08-20T11:30:06.794Z,4.67
2023-08-20T11:33:10.686Z,5.43
2023-08-20T11:36:13.618Z,4.18
2023-08-20T11:39:16.545Z,4.28
2023-08-20T11:42:21.422Z,4.72
2023-08-20T11:45:24.348Z,6.93
2023-08-20T11:48:27.166Z,5.60
2023-08-20T11:51:29.892Z,5.25
2023-08-20T11:54:34.376Z,4.40
2023-08-20T11:57:38.823Z,3.92
2023-08-20T12:00:42.161Z,4.27
2023-08-20T12:03:46.681Z,4.05
2023-08-20T12:07:04.228Z,4.97
2023-08-20T12:10:22.580Z,3.45
2023-08-20T12:13:26.762Z,4.07
2023-08-20T12:16:29.608Z,4.00
2023-08-20T12:19:32.512Z,3.72
2023-08-20T12:22:35.199Z,3.92
2023-08-20T12:25:38.423Z,5.13
2023-08-20T12:28:42.904Z,4.70
2023-08-20T12:31:45.642Z,2.50
2023-08-20T12:34:48.482Z,2.80
2023-08-20T12:37:51.205Z,4.55
2023-08-20T12:40:54.076Z,3.50
2023-08-20T12:43:58.428Z,3.30
2023-08-20T12:47:01.163Z,3.10
2023-08-20T12:50:05.429Z,4.03
2023-08-20T12:53:08.147Z,2.88
2023-08-20T12:56:11.548Z,2.83
2023-08-20T12:59:15.744Z,2.45
2023-08-20T13:02:20.357Z,3.07
2023-08-20T13:05:25.004Z,3.25
2023-08-20T13:08:28.339Z,3.15
2023-08-20T13:11:33.475Z,3.65
2023-08-20T13:14:38.225Z,4.63
2023-08-20T13:17:41.519Z,2.63
2023-08-20T13:20:44.753Z,4.22
2023-08-20T13:23:47.624Z,3.50
2023-08-20T13:26:50.405Z,3.65
2023-08-20T13:29:54.682Z,2.27
2023-08-20T13:32:57.452Z,1.50
2023-08-20T13:39:21.028Z,2.70
2023-08-20T13:42:23.792Z,2.10
2023-08-20T13:45:28.083Z,2.87
2023-08-20T13:48:31.063Z,3.40
2023-08-20T13:51:34.070Z,1.90
2023-08-20T13:54:37.526Z,3.83
2023-08-20T13:57:40.331Z,3.15
2023-08-20T14:00:44.640Z,2.93
2023-08-20T14:03:47.486Z,4.38
2023-08-20T14:06:50.412Z,4.20
2023-08-20T14:09:53.286Z,2.10
2023-08-20T14:12:56.022Z,2.33
2023-08-20T14:16:01.538Z,2.57
2023-08-20T14:19:04.607Z,2.92
2023-08-20T14:22:08.322Z,3.90
2023-08-20T14:25:11.495Z,2.90
2023-08-20T14:28:14.552Z,2.72
2023-08-20T14:31:20.306Z,3.10
2023-08-20T14:34:23.224Z,2.67
2023-08-20T14:37:25.939Z,3.72
2023-08-20T14:40:28.745Z,3.75
2023-08-20T14:43:31.944Z,4.07
2023-08-20T14:46:36.244Z,4.50
2023-08-20T14:49:39.179Z,3.33
2023-08-20T14:52:41.876Z,3.40
2023-08-20T14:55:44.811Z,3.40
2023-08-20T14:58:47.580Z,2.55
2023-08-20T15:01:51.802Z,4.90
2023-08-20T15:04:54.720Z,3.15
2023-08-20T15:07:57.565Z,2.90
2023-08-20T15:11:00.714Z,3.15
2023-08-20T15:14:04.083Z,2.97
2023-08-20T15:17:08.143Z,5.17
2023-08-20T15:20:12.566Z,4.18
2023-08-20T15:23:15.500Z,3.88
2023-08-20T15:26:18.644Z,2.92
2023-08-20T15:29:21.424Z,3.88
2023-08-20T15:32:28.092Z,3.80
2023-08-20T15:35:30.957Z,3.30
2023-08-20T15:38:33.798Z,3.72
2023-08-20T15:41:36.695Z,3.40
2023-08-20T15:44:40.241Z,3.40
2023-08-20T15:47:44.557Z,3.63
2023-08-20T15:50:47.425Z,4.20
2023-08-20T15:53:50.163Z,2.60
2023-08-20T15:56:53.330Z,3.97
2023-08-20T15:59:56.061Z,5.47
2023-08-20T16:03:00.400Z,3.30
2023-08-20T16:06:05.354Z,3.83
2023-08-20T16:09:09.363Z,3.85
2023-08-20T16:12:12.255Z,4.65
2023-08-20T16:15:15.139Z,4.07
2023-08-20T16:18:19.416Z,3.90
2023-08-20T16:21:23.103Z,3.42
2023-08-20T16:24:25.851Z,3.53
2023-08-20T16:27:28.725Z,4.80
2023-08-20T16:30:31.470Z,3.55
2023-08-20T16:33:35.745Z,4.20
2023-08-20T16:36:40.096Z,4.43
2023-08-20T16:39:42.825Z,3.85
2023-08-20T16:42:45.919Z,3.78
2023-08-20T16:45:48.744Z,4.55
2023-08-20T16:48:52.818Z,4.67
2023-08-20T16:51:55.719Z,5.03
2023-08-20T16:54:58.524Z,4.00
2023-08-20T16:58:01.408Z,3.95
2023-08-20T17:01:05.394Z,4.68
2023-08-20T17:04:09.789Z,3.97
2023-08-20T17:07:13.274Z,3.75
2023-08-20T17:10:16.115Z,4.57
2023-08-20T17:13:19.286Z,3.65
2023-08-20T17:16:22.699Z,4.60
2023-08-20T17:19:27.412Z,4.17
2023-08-20T17:22:31.029Z,3.10
2023-08-20T17:25:33.831Z,3.50
2023-08-20T17:28:36.849Z,4.60
2023-08-20T17:31:40.332Z,4.72
2023-08-20T17:34:44.640Z,2.53
2023-08-20T17:37:47.470Z,4.10
2023-08-20T17:40:50.314Z,3.58
2023-08-20T17:43:53.162Z,3.80
2023-08-20T17:46:56.300Z,3.15
2023-08-20T17:50:00.664Z,3.50
2023-08-20T17:53:05.610Z,4.35
2023-08-20T17:56:08.564Z,4.68
2023-08-20T17:59:11.475Z,3.40
2023-08-20T18:02:14.338Z,3.83
2023-08-20T18:05:18.929Z,3.23
2023-08-20T18:08:21.631Z,4.18
2023-08-20T18:11:24.535Z,4.75
2023-08-20T18:14:27.230Z,3.60
2023-08-20T18:17:30.446Z,4.85
2023-08-20T18:20:34.772Z,4.53
2023-08-20T18:23:37.491Z,5.03
2023-08-20T18:26:40.234Z,3.58
2023-08-20T18:29:43.054Z,5.05
2023-08-20T18:32:46.189Z,4.05
2023-08-20T18:35:50.639Z,4.63
2023-08-20T18:38:53.353Z,3.42
2023-08-20T18:41:57.389Z,4.47
2023-08-20T18:45:00.505Z,4.30
2023-08-20T18:48:03.860Z,4.05
2023-08-20T18:51:08.862Z,5.10
2023-08-20T18:54:11.677Z,4.53
2023-08-20T18:57:14.742Z,4.32
2023-08-20T19:00:18.899Z,4.85
2023-08-20T19:03:21.841Z,4.72
2023-08-20T19:06:26.234Z,3.87
2023-08-20T19:09:29.491Z,4.05
2023-08-20T19:12:32.354Z,5.00
2023-08-20T19:15:46.605Z,4.72
2023-08-20T19:18:50.838Z,7.00
2023-08-20T19:21:55.421Z,4.90
2023-08-20T19:24:58.103Z,4.40
2023-08-20T19:28:00.973Z,5.90
2023-08-20T19:31:04.550Z,4.93
2023-08-20T19:34:08.505Z,5.43
2023-08-20T19:37:12.776Z,4.63
2023-08-20T19:40:15.718Z,4.53
2023-08-20T19:43:20.353Z,5.22
2023-08-20T19:46:25.484Z,5.03
2023-08-20T19:49:30.063Z,4.63
2023-08-20T19:52:34.272Z,6.37
2023-08-20T19:55:37.008Z,5.18
2023-08-20T19:58:39.964Z,4.75
2023-08-20T20:01:49.685Z,5.47
2023-08-20T20:04:52.582Z,6.03
2023-08-20T20:07:56.851Z,6.13
2023-08-20T20:11:00.661Z,7.15
2023-08-20T20:14:03.717Z,5.00
2023-08-20T20:17:06.793Z,4.78
2023-08-20T20:20:12.534Z,5.50
2023-08-20T20:23:18.096Z,5.17
2023-08-20T20:26:21.011Z,6.43
2023-08-20T20:29:23.919Z,4.95
2023-08-20T20:32:26.709Z,4.35
2023-08-20T20:35:32.337Z,5.13
2023-08-20T20:38:36.616Z,4.67
2023-08-20T20:41:40.226Z,4.72
2023-08-20T20:44:44.003Z,4.65
2023-08-20T20:47:46.807Z,4.20
2023-08-20T20:50:49.912Z,5.80
2023-08-20T20:53:54.630Z,5.10
2023-08-20T20:56:57.432Z,4.00
2023-08-20T21:00:00.313Z,4.82
2023-08-20T21:03:03.256Z,3.80
2023-08-20T21:06:07.268Z,4.75
2023-08-20T21:09:11.488Z,3.23
2023-08-20T21:12:14.223Z,4.88
2023-08-20T21:15:17.434Z,5.22
2023-08-20T21:18:20.154Z,5.07
2023-08-20T21:21:23.056Z,4.60
2023-08-20T21:24:27.265Z,4.53
2023-08-20T21:27:29.961Z,6.53
2023-08-20T21:30:32.849Z,5.07
2023-08-20T21:33:35.804Z,4.70
2023-08-20T21:36:38.814Z,6.10
2023-08-20T21:39:43.118Z,4.88
2023-08-20T21:42:45.880Z,5.00
2023-08-20T21:45:48.951Z,5.27
2023-08-20T21:48:51.701Z,5.15
2023-08-20T21:51:55.112Z,4.13
2023-08-20T21:54:59.419Z,5.88
2023-08-20T21:58:02.133Z,5.72
2023-08-20T22:01:05.277Z,7.33
2023-08-20T22:04:08.065Z,5.38
2023-08-20T22:07:11.589Z,4.78
2023-08-20T22:10:18.827Z,4.25
2023-08-20T22:13:21.600Z,5.35
2023-08-20T22:16:24.481Z,4.63
2023-08-20T22:19:27.780Z,4.05
2023-08-20T22:22:30.654Z,5.55
2023-08-20T22:25:34.774Z,5.22
2023-08-20T22:28:37.812Z,5.95
2023-08-20T22:31:40.735Z,4.93
2023-08-20T22:34:43.497Z,4.43
2023-08-20T22:38:06.219Z,5.25
2023-08-20T22:41:10.403Z,4.53
2023-08-20T22:44:13.319Z,6.75
2023-08-20T22:47:16.627Z,5.27
2023-08-20T22:50:19.664Z,6.15
2023-08-20T22:53:22.513Z,7.13
2023-08-20T22:56:26.671Z,8.13
2023-08-20T22:59:30.011Z,7.40
2023-08-20T23:02:32.918Z,8.67
2023-08-20T23:05:35.646Z,8.40
2023-08-20T23:08:38.562Z,7.53
2023-08-20T23:11:42.669Z,7.60
2023-08-20T23:14:45.521Z,8.07
2023-08-20T23:17:48.588Z,7.13
2023-08-20T23:20:55.495Z,8.02
2023-08-20T23:23:58.374Z,7.30
2023-08-20T23:27:02.464Z,8.70
2023-08-20T23:30:07.253Z,7.72
2023-08-20T23:33:10.119Z,8.07
2023-08-20T23:36:12.976Z,7.00
2023-08-20T23:39:16.333Z,7.00
2023-08-20T23:42:20.400Z,7.57
2023-08-20T23:45:23.242Z,8.27
2023-08-20T23:48:26.169Z,9.30
2023-08-20T23:51:29.154Z,9.07
2023-08-20T23:54:32.046Z,8.65
2023-08-20T23:57:36.135Z,9.20
